createdAt,value
2022-08-25T00:01:43.777Z,1.58
2022-08-25T00:04:12.210Z,1.52
2022-08-25T00:06:42.722Z,2.03
2022-08-25T00:09:11.330Z,1.85
2022-08-25T00:11:39.859Z,1.55
2022-08-25T00:14:19.494Z,1.15
2022-08-25T00:16:46.060Z,1.63
2022-08-25T00:19:16.671Z,1.20
2022-08-25T00:21:44.340Z,1.90
2022-08-25T00:24:13.020Z,1.05
2022-08-25T00:26:43.303Z,0.93
2022-08-25T00:29:11.437Z,1.55
2022-08-25T00:31:39.477Z,1.25
2022-08-25T00:34:12.860Z,1.30
2022-08-25T00:36:39.665Z,1.25
2022-08-25T00:39:08.212Z,1.23
2022-08-25T00:41:36.084Z,0.88
2022-08-25T00:44:06.321Z,1.73
2022-08-25T00:46:46.120Z,1.58
2022-08-25T00:49:44.295Z,2.97
2022-08-25T00:52:17.957Z,1.73
2022-08-25T00:54:44.763Z,1.95
2022-08-25T00:57:14.246Z,0.90
2022-08-25T00:59:44.368Z,2.03
2022-08-25T01:02:13.744Z,0.90
2022-08-25T01:04:48.647Z,0.95
2022-08-25T01:07:18.734Z,1.73
2022-08-25T01:09:47.512Z,1.88
2022-08-25T01:12:14.451Z,1.42
2022-08-25T01:14:41.905Z,0.88
2022-08-25T01:17:09.588Z,1.10
2022-08-25T01:19:36.212Z,1.25
2022-08-25T01:22:02.925Z,2.03
2022-08-25T01:24:45.360Z,1.50
2022-08-25T01:27:12.048Z,1.25
2022-08-25T01:29:39.294Z,1.13
2022-08-25T01:34:37.360Z,1.60
2022-08-25T01:37:04.692Z,2.05
2022-08-25T01:39:39.346Z,2.22
2022-08-25T01:42:32.968Z,1.40
2022-08-25T01:44:59.504Z,1.23
2022-08-25T01:47:26.088Z,1.25
2022-08-25T01:49:52.663Z,1.90
2022-08-25T01:52:33.382Z,1.25
2022-08-25T01:54:59.912Z,1.10
2022-08-25T01:57:29.039Z,1.48
2022-08-25T01:59:55.579Z,1.42
2022-08-25T02:02:22.164Z,2.75
2022-08-25T02:04:49.371Z,1.10
2022-08-25T02:07:17.539Z,1.30
2022-08-25T02:09:44.394Z,0.90
2022-08-25T02:12:11.023Z,1.42
2022-08-25T02:14:37.951Z,1.13
2022-08-25T02:17:05.422Z,0.90
2022-08-25T02:19:32.479Z,1.25
2022-08-25T02:21:59.876Z,1.00
2022-08-25T02:24:26.499Z,1.17
2022-08-25T02:26:53.252Z,1.70
2022-08-25T02:29:19.891Z,1.17
2022-08-25T02:31:47.007Z,1.67
2022-08-25T02:34:15.128Z,1.42
2022-08-25T02:36:43.043Z,1.20
2022-08-25T02:39:10.462Z,1.63
2022-08-25T02:41:38.859Z,1.38
2022-08-25T02:44:06.618Z,1.10
2022-08-25T02:46:34.406Z,1.73
2022-08-25T02:49:01.345Z,0.88
2022-08-25T02:51:30.214Z,0.82
2022-08-25T02:54:02.138Z,1.08
2022-08-25T02:56:30.246Z,1.08
2022-08-25T02:58:57.089Z,1.17
2022-08-25T03:01:29.036Z,0.90
2022-08-25T03:03:56.581Z,1.10
2022-08-25T03:06:24.231Z,1.05
2022-08-25T03:08:52.067Z,1.15
2022-08-25T03:11:19.286Z,1.05
2022-08-25T03:16:13.007Z,1.33
2022-08-25T03:18:41.750Z,1.55
2022-08-25T03:21:10.295Z,1.35
2022-08-25T03:23:37.129Z,0.95
2022-08-25T03:26:22.875Z,1.75
2022-08-25T03:28:49.398Z,1.50
2022-08-25T03:31:15.984Z,1.10
2022-08-25T03:33:43.058Z,1.33
2022-08-25T03:36:12.234Z,1.23
2022-08-25T03:38:39.890Z,1.30
2022-08-25T03:41:18.061Z,1.17
2022-08-25T03:43:45.041Z,1.10
2022-08-25T03:46:25.611Z,1.55
2022-08-25T03:48:52.887Z,2.13
2022-08-25T03:53:50.671Z,1.70
2022-08-25T03:56:18.015Z,0.77
2022-08-25T03:58:44.860Z,2.00
2022-08-25T04:01:11.979Z,1.23
2022-08-25T04:03:38.629Z,1.33
2022-08-25T04:06:07.159Z,1.30
2022-08-25T04:08:33.923Z,1.27
2022-08-25T04:11:09.243Z,2.03
2022-08-25T04:13:36.823Z,1.27
2022-08-25T04:16:10.892Z,1.40
2022-08-25T04:18:37.429Z,1.88
2022-08-25T04:21:09.739Z,1.20
2022-08-25T04:23:40.891Z,1.00
2022-08-25T04:26:13.176Z,1.17
2022-08-25T04:28:40.438Z,1.33
2022-08-25T04:33:38.430Z,1.52
2022-08-25T04:36:10.146Z,1.17
2022-08-25T04:38:40.868Z,1.33
2022-08-25T04:41:08.787Z,0.75
2022-08-25T04:43:36.506Z,1.38
2022-08-25T04:46:12.505Z,1.17
2022-08-25T04:48:40.044Z,1.23
2022-08-25T04:51:08.823Z,1.65
2022-08-25T04:53:35.627Z,1.52
2022-08-25T04:56:03.967Z,2.13
2022-08-25T04:58:30.848Z,1.33
2022-08-25T05:01:09.545Z,1.48
2022-08-25T05:03:37.388Z,1.10
2022-08-25T05:06:06.039Z,1.20
2022-08-25T05:08:32.734Z,0.90
2022-08-25T05:10:59.953Z,1.27
2022-08-25T05:13:29.563Z,1.20
2022-08-25T05:16:00.276Z,1.35
2022-08-25T05:18:29.596Z,1.27
2022-08-25T05:20:57.519Z,1.38
2022-08-25T05:23:24.908Z,1.73
2022-08-25T05:25:52.736Z,1.23
2022-08-25T05:28:20.925Z,1.02
2022-08-25T05:30:49.510Z,1.25
2022-08-25T05:33:18.413Z,1.15
2022-08-25T05:35:45.154Z,1.20
2022-08-25T05:38:15.570Z,1.40
2022-08-25T05:40:42.412Z,1.08
2022-08-25T05:43:09.071Z,1.67
2022-08-25T05:45:36.088Z,1.13
2022-08-25T05:48:03.029Z,1.40
2022-08-25T05:50:29.660Z,0.90
2022-08-25T05:52:56.218Z,1.10
2022-08-25T05:55:22.744Z,1.13
2022-08-25T05:57:49.521Z,1.77
2022-08-25T06:00:17.248Z,1.27
2022-08-25T06:02:46.262Z,1.25
2022-08-25T06:05:14.749Z,1.00
2022-08-25T06:07:41.364Z,1.42
2022-08-25T06:10:11.546Z,1.10
2022-08-25T06:12:39.108Z,0.98
2022-08-25T06:15:05.994Z,1.50
2022-08-25T06:17:32.659Z,1.55
2022-08-25T06:20:00.035Z,1.05
2022-08-25T06:22:26.600Z,1.33
2022-08-25T06:24:53.366Z,1.17
2022-08-25T06:27:19.904Z,1.58
2022-08-25T06:29:46.428Z,1.88
2022-08-25T06:32:12.942Z,2.33
2022-08-25T06:34:39.506Z,2.15
2022-08-25T06:37:06.048Z,1.50
2022-08-25T06:39:32.707Z,1.15
2022-08-25T06:41:59.225Z,1.83
2022-08-25T06:44:27.532Z,2.92
2022-08-25T06:46:54.315Z,1.65
2022-08-25T06:49:21.582Z,1.90
2022-08-25T06:54:14.598Z,1.70
2022-08-25T06:56:42.155Z,1.60
2022-08-25T06:59:09.439Z,1.95
2022-08-25T07:01:36.405Z,1.08
2022-08-25T07:04:10.370Z,1.23
2022-08-25T07:06:40.084Z,1.42
2022-08-25T07:09:09.442Z,3.00
2022-08-25T07:11:36.035Z,5.60
2022-08-25T07:14:04.775Z,3.42
2022-08-25T07:16:31.749Z,4.55
2022-08-25T07:19:00.144Z,4.38
2022-08-25T07:21:33.114Z,4.43
2022-08-25T07:24:01.673Z,3.13
2022-08-25T07:26:39.453Z,5.32
2022-08-25T07:29:09.753Z,4.28
2022-08-25T07:31:36.438Z,5.43
2022-08-25T07:34:23.254Z,5.28
2022-08-25T07:36:49.802Z,2.97
2022-08-25T07:39:17.523Z,3.83
2022-08-25T07:41:51.987Z,3.03
2022-08-25T07:44:20.073Z,3.95
2022-08-25T07:46:46.770Z,6.68
2022-08-25T07:49:16.835Z,6.53
2022-08-25T07:52:05.437Z,5.53
2022-08-25T07:54:34.091Z,4.28
2022-08-25T07:57:03.171Z,6.22
2022-08-25T07:59:29.805Z,5.32
2022-08-25T08:01:57.351Z,10.80
2022-08-25T08:04:24.286Z,5.35
2022-08-25T08:06:50.819Z,4.03
2022-08-25T08:09:17.383Z,6.15
2022-08-25T08:11:53.800Z,5.07
2022-08-25T08:14:21.001Z,4.55
2022-08-25T08:16:47.748Z,5.38
2022-08-25T08:19:14.402Z,5.35
2022-08-25T08:21:41.649Z,4.38
2022-08-25T08:24:24.766Z,4.20
2022-08-25T08:26:58.953Z,3.17
2022-08-25T08:29:26.382Z,4.30
2022-08-25T08:31:53.395Z,3.38
2022-08-25T08:34:20.101Z,4.53
2022-08-25T08:36:51.678Z,4.03
2022-08-25T08:39:18.378Z,3.53
2022-08-25T08:42:18.973Z,3.00
2022-08-25T08:44:45.483Z,4.28
2022-08-25T08:47:30.661Z,3.00
2022-08-25T08:50:30.713Z,3.97
2022-08-25T08:53:06.673Z,3.40
2022-08-25T08:55:42.750Z,4.85
2022-08-25T08:58:39.254Z,3.13
2022-08-25T09:01:12.640Z,4.10
2022-08-25T09:03:47.096Z,2.42
2022-08-25T09:06:32.170Z,2.55
2022-08-25T09:09:03.587Z,2.38
2022-08-25T09:11:58.544Z,2.60
2022-08-25T09:17:06.367Z,2.50
2022-08-25T09:19:41.694Z,2.88
2022-08-25T09:22:33.585Z,3.22
2022-08-25T09:25:03.371Z,3.95
2022-08-25T09:28:08.361Z,3.50
2022-08-25T09:30:57.912Z,7.57
2022-08-25T09:33:26.806Z,4.25
2022-08-25T09:35:55.375Z,4.00
2022-08-25T09:38:26.280Z,2.95
2022-08-25T09:41:00.744Z,2.58
2022-08-25T09:43:41.557Z,3.63
2022-08-25T09:46:20.712Z,2.33
2022-08-25T09:51:30.209Z,5.53
2022-08-25T09:54:15.381Z,2.40
2022-08-25T09:57:01.196Z,2.58
2022-08-25T09:59:36.254Z,6.60
2022-08-25T10:02:25.966Z,3.13
2022-08-25T10:04:53.987Z,3.17
2022-08-25T10:07:40.102Z,3.88
2022-08-25T10:10:23.094Z,2.92
2022-08-25T10:12:51.500Z,3.58
2022-08-25T10:15:30.209Z,3.58
2022-08-25T10:18:20.020Z,2.42
2022-08-25T10:21:08.511Z,2.92
2022-08-25T10:23:41.267Z,2.72
2022-08-25T10:26:37.323Z,2.50
2022-08-25T10:29:12.121Z,3.03
2022-08-25T10:31:59.247Z,3.42
2022-08-25T10:34:44.658Z,2.90
2022-08-25T10:39:46.216Z,2.75
2022-08-25T10:42:40.365Z,3.85
2022-08-25T10:45:38.158Z,2.53
2022-08-25T10:48:22.760Z,3.80
2022-08-25T10:51:01.376Z,3.17
2022-08-25T10:53:53.940Z,3.53
2022-08-25T10:56:28.623Z,2.60
2022-08-25T10:59:01.480Z,2.70
2022-08-25T11:01:53.406Z,2.35
2022-08-25T11:04:28.528Z,2.40
2022-08-25T11:07:24.145Z,3.22
2022-08-25T11:09:56.208Z,3.10
2022-08-25T11:12:36.450Z,3.38
2022-08-25T11:15:09.995Z,4.05
2022-08-25T11:17:50.266Z,3.15
2022-08-25T11:20:26.856Z,2.35
2022-08-25T11:23:17.059Z,3.88
2022-08-25T11:25:52.031Z,6.22
2022-08-25T11:28:39.734Z,3.00
2022-08-25T11:31:09.826Z,2.08
2022-08-25T11:33:37.547Z,2.08
2022-08-25T11:36:19.047Z,2.85
2022-08-25T11:39:34.488Z,3.03
2022-08-25T11:44:55.090Z,2.50
2022-08-25T11:47:51.302Z,2.25
2022-08-25T11:50:34.972Z,2.72
2022-08-25T11:53:30.878Z,2.03
2022-08-25T11:56:53.083Z,1.92
2022-08-25T11:59:50.728Z,3.20
2022-08-25T12:02:46.468Z,1.75
2022-08-25T12:05:18.865Z,2.08
2022-08-25T12:10:52.384Z,2.42
2022-08-25T12:13:38.498Z,1.95
2022-08-25T12:16:06.153Z,1.95
2022-08-25T12:18:32.800Z,1.88
2022-08-25T12:21:00.102Z,1.70
2022-08-25T12:24:07.885Z,2.10
2022-08-25T12:26:46.073Z,1.40
2022-08-25T12:29:44.087Z,2.38
2022-08-25T12:32:28.859Z,1.98
2022-08-25T12:35:23.359Z,1.05
2022-08-25T12:37:57.102Z,1.75
2022-08-25T12:40:36.992Z,1.75
2022-08-25T12:43:26.635Z,1.15
2022-08-25T12:46:14.541Z,1.23
2022-08-25T12:49:30.054Z,2.05
2022-08-25T12:52:35.817Z,1.40
2022-08-25T12:55:06.093Z,2.35
2022-08-25T12:57:45.451Z,1.65
2022-08-25T13:03:14.231Z,1.25
2022-08-25T13:05:40.915Z,1.60
2022-08-25T13:08:26.938Z,1.42
2022-08-25T13:11:13.184Z,2.10
2022-08-25T13:13:43.612Z,1.48
2022-08-25T13:16:18.755Z,1.08
2022-08-25T13:18:45.431Z,1.55
2022-08-25T13:21:33.354Z,1.60
2022-08-25T13:24:05.708Z,2.10
2022-08-25T13:26:37.783Z,1.02
2022-08-25T13:29:19.995Z,0.95
2022-08-25T13:31:57.031Z,2.30
2022-08-25T13:34:35.213Z,0.70
2022-08-25T13:37:31.474Z,1.38
2022-08-25T13:40:19.036Z,1.27
2022-08-25T13:42:55.561Z,2.60
2022-08-25T13:45:27.704Z,2.35
2022-08-25T13:47:56.306Z,2.75
2022-08-25T13:50:27.044Z,1.88
2022-08-25T13:52:56.639Z,1.65
2022-08-25T13:55:31.281Z,1.00
2022-08-25T13:58:12.835Z,1.38
2022-08-25T14:00:45.320Z,1.58
2022-08-25T14:03:40.988Z,1.70
2022-08-25T14:06:14.982Z,2.95
2022-08-25T14:08:45.263Z,1.30
2022-08-25T14:11:14.784Z,1.65
2022-08-25T14:13:45.211Z,2.35
2022-08-25T14:16:17.413Z,1.15
2022-08-25T14:18:51.118Z,1.92
2022-08-25T14:21:20.320Z,2.42
2022-08-25T14:23:46.901Z,0.77
2022-08-25T14:26:13.450Z,1.23
2022-08-25T14:28:40.060Z,2.00
2022-08-25T14:31:10.151Z,2.22
2022-08-25T14:33:43.914Z,1.75
2022-08-25T14:36:20.660Z,2.25
2022-08-25T14:38:47.893Z,1.30
2022-08-25T14:41:23.675Z,2.05
2022-08-25T14:43:50.404Z,1.60
2022-08-25T14:46:25.875Z,1.48
2022-08-25T14:48:57.927Z,1.23
2022-08-25T14:51:26.949Z,1.75
2022-08-25T14:53:56.286Z,2.78
2022-08-25T14:56:24.028Z,1.50
2022-08-25T14:58:54.687Z,1.70
2022-08-25T15:01:28.741Z,3.85
2022-08-25T15:04:12.701Z,1.27
2022-08-25T15:06:43.510Z,1.88
2022-08-25T15:09:16.460Z,1.45
2022-08-25T15:11:50.634Z,1.45
2022-08-25T15:14:28.565Z,1.67
2022-08-25T15:17:01.207Z,1.27
2022-08-25T15:19:28.467Z,1.60
2022-08-25T15:24:27.508Z,2.25
2022-08-25T15:26:58.052Z,1.25
2022-08-25T15:29:27.327Z,1.90
2022-08-25T15:31:54.052Z,1.85
2022-08-25T15:34:20.637Z,1.38
2022-08-25T15:36:47.553Z,1.52
2022-08-25T15:39:14.720Z,1.00
2022-08-25T15:41:46.851Z,1.25
2022-08-25T15:44:16.369Z,1.60
2022-08-25T15:49:20.795Z,1.30
2022-08-25T15:51:54.550Z,2.25
2022-08-25T15:54:26.827Z,1.83
2022-08-25T15:56:54.344Z,2.08
2022-08-25T15:59:21.858Z,1.77
2022-08-25T16:01:49.143Z,2.10
2022-08-25T16:06:44.682Z,1.80
2022-08-25T16:09:11.869Z,1.33
2022-08-25T16:11:38.977Z,1.65
2022-08-25T16:14:06.185Z,1.52
2022-08-25T16:19:00.090Z,1.60
2022-08-25T16:21:30.178Z,1.65
2022-08-25T16:24:00.335Z,2.33
2022-08-25T16:26:30.578Z,2.20
2022-08-25T16:28:57.439Z,4.82
2022-08-25T16:31:24.782Z,1.63
2022-08-25T16:33:54.726Z,4.13
2022-08-25T16:38:54.831Z,3.42
2022-08-25T16:41:24.701Z,1.75
2022-08-25T16:43:52.811Z,3.17
2022-08-25T16:46:21.569Z,1.38
2022-08-25T16:48:50.542Z,2.65
2022-08-25T16:51:22.689Z,2.17
2022-08-25T16:54:15.814Z,3.47
2022-08-25T16:56:49.206Z,2.15
2022-08-25T16:59:21.663Z,2.15
2022-08-25T17:01:51.550Z,1.48
2022-08-25T17:04:18.663Z,3.03
2022-08-25T17:06:51.706Z,1.60
2022-08-25T17:09:24.108Z,2.25
2022-08-25T17:11:54.125Z,3.88
2022-08-25T17:14:21.717Z,2.00
2022-08-25T17:19:18.968Z,2.25
2022-08-25T17:21:46.699Z,3.83
2022-08-25T17:24:14.092Z,1.42
2022-08-25T17:26:42.251Z,2.92
2022-08-25T17:29:09.907Z,3.53
2022-08-25T17:31:39.909Z,3.22
2022-08-25T17:34:10.616Z,2.17
2022-08-25T17:36:38.314Z,2.00
2022-08-25T17:39:09.007Z,2.47
2022-08-25T17:41:37.614Z,3.45
2022-08-25T17:44:05.302Z,1.98
2022-08-25T17:46:32.594Z,2.97
2022-08-25T17:48:59.279Z,5.28
2022-08-25T17:51:25.912Z,1.90
2022-08-25T17:53:53.670Z,1.98
2022-08-25T17:56:27.369Z,1.42
2022-08-25T17:58:55.690Z,3.40
2022-08-25T18:01:25.793Z,2.17
2022-08-25T18:03:53.609Z,3.15
2022-08-25T18:08:53.017Z,1.52
2022-08-25T18:11:24.527Z,2.55
2022-08-25T18:13:53.736Z,2.03
2022-08-25T18:16:21.106Z,2.38
2022-08-25T18:18:48.476Z,2.40
2022-08-25T18:21:17.407Z,1.38
2022-08-25T18:23:44.886Z,2.05
2022-08-25T18:26:13.186Z,2.42
2022-08-25T18:28:40.503Z,1.67
2022-08-25T18:31:12.078Z,2.78
2022-08-25T18:33:42.118Z,1.40
2022-08-25T18:36:09.419Z,3.30
2022-08-25T18:41:26.491Z,2.22
2022-08-25T18:43:53.343Z,3.17
2022-08-25T18:46:22.748Z,1.73
2022-08-25T18:48:53.002Z,2.83
2022-08-25T18:51:22.924Z,2.08
2022-08-25T18:53:51.099Z,2.65
2022-08-25T18:56:21.778Z,1.98
2022-08-25T18:58:48.709Z,4.03
2022-08-25T19:01:17.210Z,2.17
2022-08-25T19:03:45.182Z,1.85
2022-08-25T19:06:11.740Z,1.67
2022-08-25T19:08:41.855Z,2.10
2022-08-25T19:11:09.976Z,1.63
2022-08-25T19:13:37.840Z,3.10
2022-08-25T19:16:29.997Z,2.53
2022-08-25T19:18:56.878Z,1.60
2022-08-25T19:21:24.945Z,1.63
2022-08-25T19:23:52.273Z,1.30
2022-08-25T19:26:19.540Z,1.83
2022-08-25T19:28:48.857Z,1.70
2022-08-25T19:31:18.177Z,3.78
2022-08-25T19:33:46.075Z,3.47
2022-08-25T19:36:12.790Z,3.95
2022-08-25T19:38:39.909Z,2.08
2022-08-25T19:41:10.633Z,3.05
2022-08-25T19:43:55.483Z,1.90
2022-08-25T19:46:32.740Z,2.42
2022-08-25T19:49:04.894Z,2.20
2022-08-25T19:51:34.881Z,1.17
2022-08-25T19:54:02.763Z,1.35
2022-08-25T19:56:29.611Z,1.80
2022-08-25T19:58:57.436Z,1.60
2022-08-25T20:01:24.502Z,2.33
2022-08-25T20:03:52.126Z,1.90
2022-08-25T20:06:18.831Z,2.83
2022-08-25T20:08:45.431Z,1.55
2022-08-25T20:11:12.947Z,1.65
2022-08-25T20:13:39.810Z,2.63
2022-08-25T20:16:06.611Z,1.33
2022-08-25T20:18:33.229Z,1.45
2022-08-25T20:21:00.399Z,1.60
2022-08-25T20:23:46.019Z,2.80
2022-08-25T20:26:12.582Z,1.35
2022-08-25T20:28:42.102Z,1.50
2022-08-25T20:31:09.134Z,2.53
2022-08-25T20:33:36.036Z,2.80
2022-08-25T20:36:04.701Z,1.58
2022-08-25T20:38:32.995Z,2.35
2022-08-25T20:41:01.274Z,1.85
2022-08-25T20:43:29.675Z,3.53
2022-08-25T20:46:01.349Z,1.50
2022-08-25T20:48:28.048Z,2.35
2022-08-25T20:50:57.684Z,2.40
2022-08-25T20:53:25.519Z,1.65
2022-08-25T20:55:52.230Z,1.50
2022-08-25T20:58:18.932Z,1.25
2022-08-25T21:00:46.144Z,2.80
2022-08-25T21:05:41.163Z,1.85
2022-08-25T21:08:08.575Z,1.75
2022-08-25T21:10:35.280Z,1.75
2022-08-25T21:13:02.154Z,3.30
2022-08-25T21:15:28.776Z,2.10
2022-08-25T21:17:56.039Z,1.67
2022-08-25T21:22:54.340Z,1.20
2022-08-25T21:25:21.688Z,2.95
2022-08-25T21:27:49.266Z,1.98
2022-08-25T21:30:16.545Z,1.58
2022-08-25T21:32:53.571Z,2.08
2022-08-25T21:35:22.424Z,3.15
2022-08-25T21:37:53.290Z,2.35
2022-08-25T21:40:21.913Z,3.50
2022-08-25T21:42:49.011Z,1.65
2022-08-25T21:45:15.654Z,2.13
2022-08-25T21:47:42.701Z,1.83
2022-08-25T21:50:10.870Z,1.60
2022-08-25T21:52:37.537Z,1.52
2022-08-25T21:55:05.318Z,2.88
2022-08-25T21:57:32.186Z,2.40
2022-08-25T22:00:08.278Z,1.42
2022-08-25T22:02:35.597Z,1.63
2022-08-25T22:05:02.151Z,1.90
2022-08-25T22:07:29.139Z,2.00
2022-08-25T22:10:01.330Z,1.60
2022-08-25T22:12:27.863Z,2.05
2022-08-25T22:14:56.923Z,1.70
2022-08-25T22:17:24.191Z,1.85
2022-08-25T22:19:53.884Z,3.42
2022-08-25T22:22:20.893Z,1.98
2022-08-25T22:24:47.696Z,1.60
2022-08-25T22:27:15.674Z,1.38
2022-08-25T22:29:44.096Z,1.48
2022-08-25T22:32:10.761Z,2.65
2022-08-25T22:34:40.935Z,1.60
2022-08-25T22:37:10.127Z,1.58
2022-08-25T22:39:36.881Z,1.65
2022-08-25T22:42:07.477Z,1.58
2022-08-25T22:47:00.407Z,1.80
2022-08-25T22:49:29.339Z,1.92
2022-08-25T22:51:56.730Z,3.00
2022-08-25T22:54:25.530Z,1.58
2022-08-25T22:56:52.330Z,2.05
2022-08-25T22:59:19.158Z,2.35
2022-08-25T23:01:46.043Z,2.92
2022-08-25T23:04:14.605Z,1.63
2022-08-25T23:06:41.205Z,1.38
2022-08-25T23:09:10.410Z,1.40
2022-08-25T23:11:38.664Z,1.85
2022-08-25T23:14:08.193Z,1.42
2022-08-25T23:16:34.936Z,1.40
2022-08-25T23:19:01.688Z,2.05
2022-08-25T23:21:47.584Z,2.33
2022-08-25T23:24:29.106Z,1.23
2022-08-25T23:26:59.204Z,1.20
2022-08-25T23:29:27.639Z,1.65
2022-08-25T23:31:54.498Z,1.45
2022-08-25T23:34:21.712Z,1.77
2022-08-25T23:36:48.770Z,1.75
2022-08-25T23:39:15.321Z,1.17
2022-08-25T23:41:42.153Z,1.63
2022-08-25T23:44:17.313Z,1.80
2022-08-25T23:46:45.395Z,1.30
2022-08-25T23:49:15.083Z,1.60
2022-08-25T23:51:46.547Z,1.60
2022-08-25T23:54:13.456Z,1.50
2022-08-25T23:56:44.865Z,1.33
2022-08-25T23:59:18.279Z,1.50
